createdAt,value
2023-10-10T00:00:42.949Z,1013.76
2023-10-10T00:01:42.938Z,1013.74
2023-10-10T00:02:43.012Z,1013.73
2023-10-10T00:03:42.952Z,1013.77
2023-10-10T00:04:42.902Z,1013.74
2023-10-10T00:05:42.894Z,1013.73
2023-10-10T00:06:42.981Z,1013.66
2023-10-10T00:07:42.907Z,1013.70
2023-10-10T00:08:42.917Z,1013.67
2023-10-10T00:09:42.850Z,1013.68
2023-10-10T00:10:42.840Z,1013.65
2023-10-10T00:11:42.875Z,1013.73
2023-10-10T00:12:42.848Z,1013.74
2023-10-10T00:13:42.809Z,1013.76
2023-10-10T00:14:42.815Z,1013.74
2023-10-10T00:15:42.800Z,1013.74
2023-10-10T00:16:42.792Z,1013.74
2023-10-10T00:17:42.778Z,1013.72
2023-10-10T00:18:42.755Z,1013.71
2023-10-10T00:19:42.740Z,1013.75
2023-10-10T00:20:42.809Z,1013.73
2023-10-10T00:21:42.737Z,1013.70
2023-10-10T00:22:42.709Z,1013.71
2023-10-10T00:23:42.698Z,1013.69
2023-10-10T00:24:42.688Z,1013.66
2023-10-10T00:25:42.721Z,1013.66
2023-10-10T00:26:42.677Z,1013.67
2023-10-10T00:27:42.659Z,1013.63
2023-10-10T00:28:42.641Z,1013.60
2023-10-10T00:29:42.671Z,1013.60
2023-10-10T00:30:42.659Z,1013.64
2023-10-10T00:31:42.641Z,1013.61
2023-10-10T00:32:42.615Z,1013.59
2023-10-10T00:33:42.591Z,1013.64
2023-10-10T00:34:42.573Z,1013.64
2023-10-10T00:35:42.586Z,1013.62
2023-10-10T00:36:42.551Z,1013.63
2023-10-10T00:37:42.543Z,1013.57
2023-10-10T00:38:42.528Z,1013.58
2023-10-10T00:39:42.551Z,1013.54
2023-10-10T00:40:42.528Z,1013.52
2023-10-10T00:41:42.497Z,1013.56
2023-10-10T00:42:42.741Z,1013.58
2023-10-10T00:43:42.488Z,1013.57
2023-10-10T00:44:42.506Z,1013.54
2023-10-10T00:45:42.460Z,1013.51
2023-10-10T00:46:42.575Z,1013.48
2023-10-10T00:47:42.584Z,1013.49
2023-10-10T00:48:42.460Z,1013.47
2023-10-10T00:49:42.425Z,1013.50
2023-10-10T00:50:42.405Z,1013.49
2023-10-10T00:51:42.390Z,1013.51
2023-10-10T00:52:42.377Z,1013.50
2023-10-10T00:53:42.383Z,1013.55
2023-10-10T00:54:42.394Z,1013.50
2023-10-10T00:55:42.349Z,1013.52
2023-10-10T00:56:42.340Z,1013.52
2023-10-10T00:57:42.321Z,1013.52
2023-10-10T00:58:42.335Z,1013.50
2023-10-10T00:59:42.302Z,1013.51
2023-10-10T01:00:42.321Z,1013.50
2023-10-10T01:01:42.285Z,1013.47
2023-10-10T01:02:42.395Z,1013.50
2023-10-10T01:03:42.327Z,1013.48
2023-10-10T01:04:42.246Z,1013.54
2023-10-10T01:05:42.237Z,1013.50
2023-10-10T01:06:42.225Z,1013.52
2023-10-10T01:07:42.226Z,1013.56
2023-10-10T01:08:42.227Z,1013.57
2023-10-10T01:09:42.216Z,1013.57
2023-10-10T01:10:42.181Z,1013.59
2023-10-10T01:11:42.170Z,1013.57
2023-10-10T01:12:42.176Z,1013.58
2023-10-10T01:13:42.155Z,1013.57
2023-10-10T01:14:42.138Z,1013.59
2023-10-10T01:15:42.126Z,1013.58
2023-10-10T01:16:42.140Z,1013.56
2023-10-10T01:17:42.170Z,1013.57
2023-10-10T01:18:42.118Z,1013.59
2023-10-10T01:19:42.089Z,1013.57
2023-10-10T01:20:42.073Z,1013.54
2023-10-10T01:21:42.079Z,1013.54
2023-10-10T01:22:42.067Z,1013.49
2023-10-10T01:23:42.047Z,1013.50
2023-10-10T01:24:42.059Z,1013.48
2023-10-10T01:25:42.028Z,1013.51
2023-10-10T01:26:42.025Z,1013.46
2023-10-10T01:27:41.996Z,1013.47
2023-10-10T01:28:41.984Z,1013.42
2023-10-10T01:29:42.186Z,1013.45
2023-10-10T01:30:41.990Z,1013.43
2023-10-10T01:31:41.973Z,1013.40
2023-10-10T01:32:42.036Z,1013.42
2023-10-10T01:33:41.929Z,1013.40
2023-10-10T01:34:41.936Z,1013.44
2023-10-10T01:35:41.933Z,1013.43
2023-10-10T01:36:41.924Z,1013.44
2023-10-10T01:37:41.886Z,1013.43
2023-10-10T01:38:41.874Z,1013.39
2023-10-10T01:39:41.866Z,1013.42
2023-10-10T01:40:41.864Z,1013.38
2023-10-10T01:41:41.880Z,1013.39
2023-10-10T01:42:41.836Z,1013.39
2023-10-10T01:43:41.824Z,1013.36
2023-10-10T01:44:41.885Z,1013.34
2023-10-10T01:45:41.812Z,1013.33
2023-10-10T01:46:41.978Z,1013.33
2023-10-10T01:47:41.912Z,1013.29
2023-10-10T01:48:41.769Z,1013.24
2023-10-10T01:49:41.765Z,1013.27
2023-10-10T01:50:41.786Z,1013.28
2023-10-10T01:51:41.736Z,1013.29
2023-10-10T01:52:41.725Z,1013.33
2023-10-10T01:53:41.713Z,1013.36
2023-10-10T01:54:41.991Z,1013.29
2023-10-10T01:55:41.687Z,1013.32
2023-10-10T01:56:41.679Z,1013.26
2023-10-10T01:57:41.665Z,1013.28
2023-10-10T01:58:41.677Z,1013.27
2023-10-10T01:59:41.734Z,1013.27
2023-10-10T02:00:41.642Z,1013.25
2023-10-10T02:01:41.708Z,1013.26
2023-10-10T02:02:41.802Z,1013.21
2023-10-10T02:03:41.714Z,1013.22
2023-10-10T02:04:41.589Z,1013.21
2023-10-10T02:05:41.589Z,1013.24
2023-10-10T02:06:41.581Z,1013.19
2023-10-10T02:07:41.571Z,1013.18
2023-10-10T02:08:41.562Z,1013.17
2023-10-10T02:09:41.573Z,1013.19
2023-10-10T02:10:41.536Z,1013.22
2023-10-10T02:11:41.535Z,1013.24
2023-10-10T02:12:41.541Z,1013.26
2023-10-10T02:13:41.510Z,1013.25
2023-10-10T02:14:41.517Z,1013.19
2023-10-10T02:15:41.473Z,1013.21
2023-10-10T02:16:41.539Z,1013.21
2023-10-10T02:17:41.506Z,1013.16
2023-10-10T02:18:41.460Z,1013.16
2023-10-10T02:19:41.438Z,1013.15
2023-10-10T02:20:41.493Z,1013.19
2023-10-10T02:21:41.410Z,1013.18
2023-10-10T02:22:41.463Z,1013.17
2023-10-10T02:23:41.383Z,1013.18
2023-10-10T02:24:41.390Z,1013.16
2023-10-10T02:25:41.430Z,1013.17
2023-10-10T02:26:41.448Z,1013.20
2023-10-10T02:27:41.393Z,1013.20
2023-10-10T02:28:41.337Z,1013.20
2023-10-10T02:29:41.354Z,1013.19
2023-10-10T02:30:41.336Z,1013.24
2023-10-10T02:31:41.326Z,1013.22
2023-10-10T02:32:41.393Z,1013.26
2023-10-10T02:33:41.283Z,1013.26
2023-10-10T02:34:41.264Z,1013.32
2023-10-10T02:35:41.281Z,1013.30
2023-10-10T02:36:41.268Z,1013.30
2023-10-10T02:37:41.232Z,1013.33
2023-10-10T02:38:41.463Z,1013.37
2023-10-10T02:39:41.213Z,1013.35
2023-10-10T02:40:41.220Z,1013.34
2023-10-10T02:41:41.291Z,1013.36
2023-10-10T02:42:41.177Z,1013.28
2023-10-10T02:43:41.172Z,1013.33
2023-10-10T02:44:41.157Z,1013.32
2023-10-10T02:45:41.158Z,1013.27
2023-10-10T02:46:41.255Z,1013.28
2023-10-10T02:47:41.197Z,1013.26
2023-10-10T02:48:41.114Z,1013.25
2023-10-10T02:49:41.103Z,1013.24
2023-10-10T02:50:41.131Z,1013.26
2023-10-10T02:51:41.075Z,1013.24
2023-10-10T02:52:41.066Z,1013.22
2023-10-10T02:53:41.054Z,1013.23
2023-10-10T02:54:41.099Z,1013.19
2023-10-10T02:55:41.043Z,1013.22
2023-10-10T02:56:41.021Z,1013.20
2023-10-10T02:57:41.008Z,1013.19
2023-10-10T02:58:41.009Z,1013.23
2023-10-10T02:59:41.003Z,1013.17
2023-10-10T03:00:40.989Z,1013.17
2023-10-10T03:01:40.992Z,1013.19
2023-10-10T03:02:41.093Z,1013.11
2023-10-10T03:03:41.121Z,1013.13
2023-10-10T03:04:40.953Z,1013.10
2023-10-10T03:05:41.277Z,1013.08
2023-10-10T03:06:40.930Z,1013.09
2023-10-10T03:07:40.901Z,1013.07
2023-10-10T03:08:40.976Z,1013.01
2023-10-10T03:09:40.894Z,1012.99
2023-10-10T03:10:40.892Z,1012.94
2023-10-10T03:11:40.853Z,1012.96
2023-10-10T03:12:40.853Z,1012.88
2023-10-10T03:13:40.854Z,1012.86
2023-10-10T03:14:40.846Z,1012.86
2023-10-10T03:15:40.818Z,1012.87
2023-10-10T03:16:40.867Z,1012.86
2023-10-10T03:17:40.916Z,1012.85
2023-10-10T03:18:40.805Z,1012.84
2023-10-10T03:19:40.776Z,1012.90
2023-10-10T03:20:40.793Z,1012.92
2023-10-10T03:21:40.749Z,1012.91
2023-10-10T03:22:40.740Z,1012.94
2023-10-10T03:23:40.806Z,1012.98
2023-10-10T03:24:40.719Z,1013.01
2023-10-10T03:25:40.706Z,1013.01
2023-10-10T03:26:40.759Z,1013.02
2023-10-10T03:27:40.702Z,1013.00
2023-10-10T03:28:40.691Z,1013.02
2023-10-10T03:29:40.703Z,1013.00
2023-10-10T03:30:40.656Z,1013.00
2023-10-10T03:31:40.658Z,1013.01
2023-10-10T03:32:40.777Z,1013.04
2023-10-10T03:33:40.620Z,1013.07
2023-10-10T03:34:40.606Z,1013.08
2023-10-10T03:35:40.641Z,1013.12
2023-10-10T03:36:40.602Z,1013.14
2023-10-10T03:37:40.608Z,1013.13
2023-10-10T03:38:40.564Z,1013.14
2023-10-10T03:39:40.568Z,1013.17
2023-10-10T03:40:40.547Z,1013.14
2023-10-10T03:41:40.557Z,1013.18
2023-10-10T03:42:40.548Z,1013.16
2023-10-10T03:43:40.518Z,1013.18
2023-10-10T03:44:40.567Z,1013.17
2023-10-10T03:45:40.486Z,1013.21
2023-10-10T03:46:40.502Z,1013.21
2023-10-10T03:47:40.535Z,1013.26
2023-10-10T03:48:40.456Z,1013.28
2023-10-10T03:49:40.446Z,1013.28
2023-10-10T03:50:40.500Z,1013.30
2023-10-10T03:51:40.445Z,1013.34
2023-10-10T03:52:40.427Z,1013.32
2023-10-10T03:53:40.446Z,1013.33
2023-10-10T03:54:40.404Z,1013.28
2023-10-10T03:55:40.391Z,1013.29
2023-10-10T03:56:40.405Z,1013.33
2023-10-10T03:57:40.357Z,1013.29
2023-10-10T03:58:40.372Z,1013.26
2023-10-10T03:59:40.437Z,1013.28
2023-10-10T04:00:40.350Z,1013.24
2023-10-10T04:01:40.331Z,1013.28
2023-10-10T04:02:40.390Z,1013.24
2023-10-10T04:03:40.409Z,1013.28
2023-10-10T04:04:40.295Z,1013.26
2023-10-10T04:05:40.301Z,1013.21
2023-10-10T04:06:40.263Z,1013.25
2023-10-10T04:07:42.071Z,1013.25
2023-10-10T04:08:40.298Z,1013.23
2023-10-10T04:09:40.264Z,1013.22
2023-10-10T04:10:40.220Z,1013.28
2023-10-10T04:11:40.263Z,1013.24
2023-10-10T04:12:40.196Z,1013.22
2023-10-10T04:13:40.205Z,1013.21
2023-10-10T04:14:40.283Z,1013.23
2023-10-10T04:15:40.209Z,1013.21
2023-10-10T04:16:40.218Z,1013.18
2023-10-10T04:17:40.169Z,1013.19
2023-10-10T04:18:40.159Z,1013.17
2023-10-10T04:19:40.138Z,1013.23
2023-10-10T04:20:40.157Z,1013.18
2023-10-10T04:21:40.099Z,1013.13
2023-10-10T04:22:40.089Z,1013.14
2023-10-10T04:23:40.157Z,1013.20
2023-10-10T04:24:40.066Z,1013.18
2023-10-10T04:25:40.059Z,1013.21
2023-10-10T04:26:40.088Z,1013.19
2023-10-10T04:27:40.072Z,1013.16
2023-10-10T04:28:40.043Z,1013.22
2023-10-10T04:29:40.067Z,1013.14
2023-10-10T04:30:40.028Z,1013.16
2023-10-10T04:31:40.036Z,1013.17
2023-10-10T04:32:40.061Z,1013.18
2023-10-10T04:33:39.997Z,1013.15
2023-10-10T04:34:39.964Z,1013.17
2023-10-10T04:35:39.984Z,1013.09
2023-10-10T04:36:39.945Z,1013.10
2023-10-10T04:37:39.945Z,1013.13
2023-10-10T04:38:39.962Z,1013.14
2023-10-10T04:39:39.907Z,1013.14
2023-10-10T04:40:39.891Z,1013.15
2023-10-10T04:41:39.930Z,1013.23
2023-10-10T04:42:39.901Z,1013.19
2023-10-10T04:43:39.858Z,1013.20
2023-10-10T04:44:39.892Z,1013.18
2023-10-10T04:45:39.853Z,1013.15
2023-10-10T04:46:39.902Z,1013.17
2023-10-10T04:47:39.897Z,1013.15
2023-10-10T04:48:39.807Z,1013.15
2023-10-10T04:49:39.793Z,1013.21
2023-10-10T04:50:39.847Z,1013.23
2023-10-10T04:51:39.797Z,1013.24
2023-10-10T04:52:39.772Z,1013.25
2023-10-10T04:53:39.783Z,1013.24
2023-10-10T04:54:39.744Z,1013.21
2023-10-10T04:55:39.745Z,1013.20
2023-10-10T04:56:39.777Z,1013.20
2023-10-10T04:57:39.709Z,1013.21
2023-10-10T04:58:39.701Z,1013.19
2023-10-10T04:59:39.709Z,1013.23
2023-10-10T05:00:39.688Z,1013.20
2023-10-10T05:01:39.732Z,1013.22
2023-10-10T05:02:39.784Z,1013.21
2023-10-10T05:03:39.706Z,1013.24
2023-10-10T05:04:39.656Z,1013.24
2023-10-10T05:05:39.708Z,1013.21
2023-10-10T05:06:39.628Z,1013.28
2023-10-10T05:07:39.665Z,1013.24
2023-10-10T05:08:39.725Z,1013.21
2023-10-10T05:09:39.587Z,1013.29
2023-10-10T05:10:39.603Z,1013.23
2023-10-10T05:11:39.615Z,1013.26
2023-10-10T05:12:39.566Z,1013.26
2023-10-10T05:13:39.541Z,1013.28
2023-10-10T05:14:39.589Z,1013.28
2023-10-10T05:15:39.547Z,1013.24
2023-10-10T05:16:39.511Z,1013.24
2023-10-10T05:17:39.618Z,1013.24
2023-10-10T05:18:39.520Z,1013.24
2023-10-10T05:19:39.503Z,1013.23
2023-10-10T05:20:39.470Z,1013.25
2023-10-10T05:21:39.460Z,1013.20
2023-10-10T05:22:39.439Z,1013.22
2023-10-10T05:23:39.469Z,1013.25
2023-10-10T05:24:39.440Z,1013.24
2023-10-10T05:25:39.412Z,1013.25
2023-10-10T05:26:39.413Z,1013.21
2023-10-10T05:27:39.387Z,1013.23
2023-10-10T05:28:39.390Z,1013.23
2023-10-10T05:29:39.443Z,1013.25
2023-10-10T05:30:39.366Z,1013.29
2023-10-10T05:31:39.406Z,1013.31
2023-10-10T05:32:39.458Z,1013.31
2023-10-10T05:33:39.338Z,1013.31
2023-10-10T05:34:39.338Z,1013.31
2023-10-10T05:35:39.374Z,1013.30
2023-10-10T05:36:39.289Z,1013.33
2023-10-10T05:37:39.276Z,1013.35
2023-10-10T05:38:39.369Z,1013.33
2023-10-10T05:39:39.254Z,1013.33
2023-10-10T05:40:39.257Z,1013.33
2023-10-10T05:41:39.255Z,1013.34
2023-10-10T05:42:39.244Z,1013.31
2023-10-10T05:43:39.227Z,1013.28
2023-10-10T05:44:39.230Z,1013.27
2023-10-10T05:45:39.297Z,1013.31
2023-10-10T05:46:39.180Z,1013.28
2023-10-10T05:47:39.228Z,1013.27
2023-10-10T05:48:39.176Z,1013.31
2023-10-10T05:49:39.164Z,1013.33
2023-10-10T05:50:39.250Z,1013.30
2023-10-10T05:51:39.125Z,1013.30
2023-10-10T05:52:39.128Z,1013.32
2023-10-10T05:53:39.121Z,1013.29
2023-10-10T05:54:39.097Z,1013.33
2023-10-10T05:55:39.091Z,1013.32
2023-10-10T05:56:39.093Z,1013.37
2023-10-10T05:57:39.092Z,1013.37
2023-10-10T05:58:39.071Z,1013.35
2023-10-10T05:59:39.054Z,1013.39
2023-10-10T06:00:39.029Z,1013.35
2023-10-10T06:01:39.088Z,1013.40
2023-10-10T06:02:39.165Z,1013.40
2023-10-10T06:03:39.112Z,1013.43
2023-10-10T06:04:38.993Z,1013.41
2023-10-10T06:05:39.015Z,1013.43
2023-10-10T06:06:41.842Z,1013.41
2023-10-10T06:07:38.961Z,1013.41
2023-10-10T06:08:38.957Z,1013.45
2023-10-10T06:09:38.934Z,1013.43
2023-10-10T06:10:38.946Z,1013.45
2023-10-10T06:11:38.979Z,1013.48
2023-10-10T06:12:38.907Z,1013.43
2023-10-10T06:13:38.889Z,1013.47
2023-10-10T06:14:38.958Z,1013.42
2023-10-10T06:15:38.952Z,1013.46
2023-10-10T06:16:39.054Z,1013.44
2023-10-10T06:17:38.899Z,1013.47
2023-10-10T06:18:38.871Z,1013.46
2023-10-10T06:19:40.625Z,1013.47
2023-10-10T06:20:38.845Z,1013.50
2023-10-10T06:21:38.826Z,1013.49
2023-10-10T06:22:38.807Z,1013.54
2023-10-10T06:23:38.783Z,1013.59
2023-10-10T06:24:38.813Z,1013.61
2023-10-10T06:25:38.780Z,1013.56
2023-10-10T06:26:38.768Z,1013.63
2023-10-10T06:27:38.780Z,1013.63
2023-10-10T06:28:38.725Z,1013.67
2023-10-10T06:29:38.742Z,1013.64
2023-10-10T06:30:38.703Z,1013.70
2023-10-10T06:31:38.826Z,1013.66
2023-10-10T06:32:38.730Z,1013.72
2023-10-10T06:33:38.744Z,1013.67
2023-10-10T06:34:38.686Z,1013.73
2023-10-10T06:35:38.675Z,1013.72
2023-10-10T06:36:38.636Z,1013.72
2023-10-10T06:37:38.636Z,1013.73
2023-10-10T06:38:38.701Z,1013.72
2023-10-10T06:39:38.637Z,1013.68
2023-10-10T06:40:38.592Z,1013.75
2023-10-10T06:41:38.620Z,1013.77
2023-10-10T06:42:38.570Z,1013.78
2023-10-10T06:43:38.584Z,1013.80
2023-10-10T06:44:38.694Z,1013.83
2023-10-10T06:45:38.578Z,1013.83
2023-10-10T06:46:38.587Z,1013.87
2023-10-10T06:47:38.599Z,1013.81
2023-10-10T06:48:38.520Z,1013.87
2023-10-10T06:49:38.495Z,1013.81
2023-10-10T06:50:38.513Z,1013.77
2023-10-10T06:51:38.482Z,1013.85
2023-10-10T06:52:38.469Z,1013.82
2023-10-10T06:53:38.501Z,1013.80
2023-10-10T06:54:38.464Z,1013.83
2023-10-10T06:55:38.444Z,1013.74
2023-10-10T06:56:38.438Z,1013.80
2023-10-10T06:57:40.477Z,1013.83
2023-10-10T06:58:38.411Z,1013.82
2023-10-10T06:59:38.433Z,1013.81
2023-10-10T07:00:38.378Z,1013.77
2023-10-10T07:01:38.371Z,1013.77
2023-10-10T07:02:38.431Z,1013.81
2023-10-10T07:03:38.520Z,1013.87
2023-10-10T07:04:38.340Z,1013.86
2023-10-10T07:05:38.369Z,1013.93
2023-10-10T07:06:38.316Z,1013.93
2023-10-10T07:07:38.364Z,1013.97
2023-10-10T07:08:38.391Z,1013.96
2023-10-10T07:09:38.289Z,1013.97
2023-10-10T07:10:38.294Z,1013.99
2023-10-10T07:11:38.343Z,1013.98
2023-10-10T07:12:38.264Z,1013.99
2023-10-10T07:13:38.239Z,1013.98
2023-10-10T07:14:38.340Z,1014.02
2023-10-10T07:15:38.233Z,1014.04
2023-10-10T07:16:38.224Z,1013.99
2023-10-10T07:17:38.240Z,1014.01
2023-10-10T07:18:38.236Z,1014.03
2023-10-10T07:19:38.168Z,1014.03
2023-10-10T07:20:38.188Z,1014.02
2023-10-10T07:21:38.165Z,1014.04
2023-10-10T07:22:38.159Z,1014.00
2023-10-10T07:23:38.241Z,1014.04
2023-10-10T07:24:38.170Z,1014.08
2023-10-10T07:25:38.144Z,1014.08
2023-10-10T07:26:38.203Z,1014.07
2023-10-10T07:27:38.084Z,1014.09
2023-10-10T07:28:38.089Z,1014.09
2023-10-10T07:29:38.136Z,1014.09
2023-10-10T07:30:38.064Z,1014.13
2023-10-10T07:31:38.116Z,1014.11
2023-10-10T07:32:39.543Z,1014.12
2023-10-10T07:33:38.088Z,1014.14
2023-10-10T07:34:38.007Z,1014.08
2023-10-10T07:35:38.252Z,1014.10
2023-10-10T07:36:37.984Z,1014.11
2023-10-10T07:37:37.977Z,1014.12
2023-10-10T07:38:38.047Z,1014.09
2023-10-10T07:39:38.046Z,1014.16
2023-10-10T07:40:37.956Z,1014.10
2023-10-10T07:41:37.982Z,1014.09
2023-10-10T07:42:37.957Z,1014.12
2023-10-10T07:43:37.913Z,1014.12
2023-10-10T07:44:37.950Z,1014.13
2023-10-10T07:45:37.887Z,1014.14
2023-10-10T07:46:37.974Z,1014.13
2023-10-10T07:47:37.949Z,1014.11
2023-10-10T07:48:37.925Z,1014.12
2023-10-10T07:49:37.863Z,1014.14
2023-10-10T07:50:37.899Z,1014.14
2023-10-10T07:51:37.861Z,1014.18
2023-10-10T07:52:37.839Z,1014.15
2023-10-10T07:53:37.856Z,1014.16
2023-10-10T07:54:37.836Z,1014.12
2023-10-10T07:55:37.776Z,1014.18
2023-10-10T07:56:37.817Z,1014.17
2023-10-10T07:57:37.759Z,1014.20
2023-10-10T07:58:51.182Z,1014.18
2023-10-10T07:59:38.822Z,1014.18
2023-10-10T08:00:37.793Z,1014.16
2023-10-10T08:01:37.718Z,1014.13
2023-10-10T08:02:37.761Z,1014.11
2023-10-10T08:03:37.769Z,1014.11
2023-10-10T08:04:37.706Z,1014.14
2023-10-10T08:05:37.717Z,1014.12
2023-10-10T08:06:37.657Z,1014.18
2023-10-10T08:07:37.657Z,1014.17
2023-10-10T08:08:37.764Z,1014.15
2023-10-10T08:09:37.623Z,1014.17
2023-10-10T08:10:37.617Z,1014.16
2023-10-10T08:11:38.032Z,1014.19
2023-10-10T08:12:37.622Z,1014.17
2023-10-10T08:13:37.586Z,1014.23
2023-10-10T08:14:37.649Z,1014.19
2023-10-10T08:15:37.558Z,1014.18
2023-10-10T08:16:37.641Z,1014.20
2023-10-10T08:17:37.612Z,1014.18
2023-10-10T08:18:37.561Z,1014.22
2023-10-10T08:19:37.528Z,1014.17
2023-10-10T08:20:37.534Z,1014.15
2023-10-10T08:21:37.506Z,1014.17
2023-10-10T08:22:37.491Z,1014.17
2023-10-10T08:23:37.541Z,1014.18
2023-10-10T08:24:37.458Z,1014.16
2023-10-10T08:25:37.452Z,1014.18
2023-10-10T08:26:37.502Z,1014.19
2023-10-10T08:27:37.430Z,1014.16
2023-10-10T08:28:37.438Z,1014.18
2023-10-10T08:29:37.462Z,1014.26
2023-10-10T08:30:37.565Z,1014.21
2023-10-10T08:31:37.443Z,1014.26
2023-10-10T08:32:37.451Z,1014.26
2023-10-10T08:33:37.391Z,1014.23
2023-10-10T08:34:37.354Z,1014.22
2023-10-10T08:35:37.397Z,1014.24
2023-10-10T08:36:37.374Z,1014.23
2023-10-10T08:37:37.323Z,1014.24
2023-10-10T08:38:37.331Z,1014.23
2023-10-10T08:39:37.329Z,1014.22
2023-10-10T08:40:37.341Z,1014.23
2023-10-10T08:41:37.291Z,1014.26
2023-10-10T08:42:37.266Z,1014.27
2023-10-10T08:43:37.274Z,1014.24
2023-10-10T08:44:37.337Z,1014.27
2023-10-10T08:45:37.248Z,1014.23
2023-10-10T08:46:37.327Z,1014.27
2023-10-10T08:47:37.252Z,1014.23
2023-10-10T08:48:37.233Z,1014.21
2023-10-10T08:49:37.251Z,1014.21
2023-10-10T08:50:37.310Z,1014.22
2023-10-10T08:51:37.246Z,1014.22
2023-10-10T08:52:37.158Z,1014.23
2023-10-10T08:53:37.262Z,1014.26
2023-10-10T08:54:37.215Z,1014.23
2023-10-10T08:55:39.908Z,1014.25
2023-10-10T08:56:37.167Z,1014.29
2023-10-10T08:57:37.111Z,1014.27
2023-10-10T08:58:37.181Z,1014.26
2023-10-10T08:59:37.167Z,1014.19
2023-10-10T09:00:37.180Z,1014.17
2023-10-10T09:01:37.296Z,1014.16
2023-10-10T09:02:37.146Z,1014.15
2023-10-10T09:03:37.096Z,1014.19
2023-10-10T09:04:37.041Z,1014.19
2023-10-10T09:05:37.120Z,1014.21
2023-10-10T09:06:37.003Z,1014.21
2023-10-10T09:07:36.995Z,1014.16
2023-10-10T09:08:37.037Z,1014.24
2023-10-10T09:09:36.985Z,1014.24
2023-10-10T09:10:36.963Z,1014.17
2023-10-10T09:11:36.960Z,1014.29
2023-10-10T09:12:36.943Z,1014.26
2023-10-10T09:13:36.943Z,1014.17
2023-10-10T09:14:36.979Z,1014.14
2023-10-10T09:15:36.911Z,1014.19
2023-10-10T09:16:37.009Z,1014.19
2023-10-10T09:17:40.802Z,1014.15
2023-10-10T09:18:36.957Z,1014.15
2023-10-10T09:19:36.872Z,1014.21
2023-10-10T09:20:36.872Z,1014.19
2023-10-10T09:21:36.846Z,1014.20
2023-10-10T09:22:36.848Z,1014.19
2023-10-10T09:23:36.865Z,1014.17
2023-10-10T09:24:36.814Z,1014.15
2023-10-10T09:25:36.803Z,1014.17
2023-10-10T09:26:36.818Z,1014.21
2023-10-10T09:27:36.798Z,1014.24
2023-10-10T09:28:36.771Z,1014.21
2023-10-10T09:29:36.798Z,1014.21
2023-10-10T09:30:36.765Z,1014.28
2023-10-10T09:31:38.768Z,1014.24
2023-10-10T09:32:36.846Z,1014.22
2023-10-10T09:33:36.779Z,1014.25
2023-10-10T09:34:36.731Z,1014.23
2023-10-10T09:35:36.743Z,1014.23
2023-10-10T09:36:36.710Z,1014.17
2023-10-10T09:37:36.686Z,1014.21
2023-10-10T09:38:36.673Z,1014.24
2023-10-10T09:39:36.696Z,1014.24
2023-10-10T09:40:36.676Z,1014.20
2023-10-10T09:41:36.684Z,1014.16
2023-10-10T09:42:36.648Z,1014.21
2023-10-10T09:43:36.692Z,1014.21
2023-10-10T09:44:36.659Z,1014.28
2023-10-10T09:45:36.638Z,1014.26
2023-10-10T09:46:36.624Z,1014.24
2023-10-10T09:47:36.646Z,1014.24
2023-10-10T09:48:36.607Z,1014.30
2023-10-10T09:49:36.567Z,1014.27
2023-10-10T09:50:36.773Z,1014.25
2023-10-10T09:51:36.554Z,1014.22
2023-10-10T09:52:36.524Z,1014.24
2023-10-10T09:53:36.582Z,1014.30
2023-10-10T09:54:36.512Z,1014.30
2023-10-10T09:55:36.502Z,1014.29
2023-10-10T09:56:36.514Z,1014.28
2023-10-10T09:57:36.471Z,1014.27
2023-10-10T09:58:36.458Z,1014.28
2023-10-10T09:59:36.511Z,1014.24
2023-10-10T10:00:36.457Z,1014.23
2023-10-10T10:01:36.450Z,1014.31
2023-10-10T10:02:36.498Z,1014.31
2023-10-10T10:03:36.434Z,1014.35
2023-10-10T10:04:36.519Z,1014.34
2023-10-10T10:05:36.427Z,1014.34
2023-10-10T10:06:36.801Z,1014.31
2023-10-10T10:07:36.368Z,1014.31
2023-10-10T10:08:36.375Z,1014.31
2023-10-10T10:09:36.360Z,1014.34
2023-10-10T10:10:36.344Z,1014.39
2023-10-10T10:11:36.387Z,1014.40
2023-10-10T10:12:36.319Z,1014.44
2023-10-10T10:13:36.366Z,1014.43
2023-10-10T10:14:36.349Z,1014.42
2023-10-10T10:15:36.287Z,1014.39
2023-10-10T10:16:36.384Z,1014.41
2023-10-10T10:17:36.351Z,1014.47
2023-10-10T10:18:36.299Z,1014.46
2023-10-10T10:19:36.242Z,1014.46
2023-10-10T10:20:36.285Z,1014.46
2023-10-10T10:21:36.221Z,1014.50
2023-10-10T10:22:36.238Z,1014.40
2023-10-10T10:23:36.257Z,1014.40
2023-10-10T10:24:36.190Z,1014.43
2023-10-10T10:25:38.355Z,1014.46
2023-10-10T10:26:36.198Z,1014.41
2023-10-10T10:27:36.177Z,1014.41
2023-10-10T10:28:36.175Z,1014.42
2023-10-10T10:29:36.227Z,1014.40
2023-10-10T10:30:36.128Z,1014.43
2023-10-10T10:31:38.399Z,1014.40
2023-10-10T10:32:36.168Z,1014.38
2023-10-10T10:33:36.119Z,1014.43
2023-10-10T10:34:36.087Z,1014.45
2023-10-10T10:35:36.173Z,1014.41
2023-10-10T10:36:36.208Z,1014.45
2023-10-10T10:37:36.071Z,1014.43
2023-10-10T10:38:36.117Z,1014.44
2023-10-10T10:39:36.030Z,1014.45
2023-10-10T10:40:36.024Z,1014.46
2023-10-10T10:41:36.065Z,1014.51
2023-10-10T10:42:36.028Z,1014.46
2023-10-10T10:43:36.031Z,1014.46
2023-10-10T10:44:36.001Z,1014.43
2023-10-10T10:45:35.969Z,1014.40
2023-10-10T10:46:36.002Z,1014.37
2023-10-10T10:47:36.394Z,1014.39
2023-10-10T10:48:35.968Z,1014.42
2023-10-10T10:49:35.924Z,1014.43
2023-10-10T10:50:35.979Z,1014.42
2023-10-10T10:51:35.952Z,1014.42
2023-10-10T10:52:35.896Z,1014.39
2023-10-10T10:53:35.928Z,1014.41
2023-10-10T10:54:35.901Z,1014.46
2023-10-10T10:55:35.855Z,1014.40
2023-10-10T10:56:35.924Z,1014.44
2023-10-10T10:57:49.300Z,1014.41
2023-10-10T10:58:36.828Z,1014.41
2023-10-10T10:59:35.879Z,1014.33
2023-10-10T11:00:35.881Z,1014.34
2023-10-10T11:01:35.899Z,1014.33
2023-10-10T11:02:35.854Z,1014.25
2023-10-10T11:03:35.854Z,1014.25
2023-10-10T11:04:35.775Z,1014.24
2023-10-10T11:05:35.774Z,1014.23
2023-10-10T11:06:35.746Z,1014.24
2023-10-10T11:07:35.724Z,1014.26
2023-10-10T11:08:46.210Z,1014.22
2023-10-10T11:09:36.705Z,1014.21
2023-10-10T11:10:35.737Z,1014.21
2023-10-10T11:11:35.693Z,1014.24
2023-10-10T11:12:35.675Z,1014.21
2023-10-10T11:13:35.665Z,1014.22
2023-10-10T11:14:35.741Z,1014.25
2023-10-10T11:15:35.670Z,1014.27
2023-10-10T11:16:35.641Z,1014.23
2023-10-10T11:17:35.669Z,1014.26
2023-10-10T11:18:35.709Z,1014.25
2023-10-10T11:19:35.619Z,1014.28
2023-10-10T11:20:35.596Z,1014.28
2023-10-10T11:21:35.570Z,1014.28
2023-10-10T11:22:35.565Z,1014.31
2023-10-10T11:23:35.611Z,1014.27
2023-10-10T11:24:35.574Z,1014.26
2023-10-10T11:25:35.531Z,1014.29
2023-10-10T11:26:35.576Z,1014.27
2023-10-10T11:27:35.504Z,1014.27
2023-10-10T11:28:35.512Z,1014.25
2023-10-10T11:29:35.576Z,1014.26
2023-10-10T11:30:35.476Z,1014.29
2023-10-10T11:31:35.606Z,1014.30
2023-10-10T11:32:35.574Z,1014.29
2023-10-10T11:33:35.503Z,1014.26
2023-10-10T11:34:35.432Z,1014.30
2023-10-10T11:35:35.570Z,1014.32
2023-10-10T11:36:35.423Z,1014.31
2023-10-10T11:37:35.408Z,1014.31
2023-10-10T11:38:35.507Z,1014.32
2023-10-10T11:39:35.526Z,1014.31
2023-10-10T11:40:35.386Z,1014.27
2023-10-10T11:41:35.371Z,1014.21
2023-10-10T11:42:35.394Z,1014.23
2023-10-10T11:43:36.030Z,1014.22
2023-10-10T11:44:35.490Z,1014.21
2023-10-10T11:45:35.434Z,1014.21
2023-10-10T11:46:35.451Z,1014.25
2023-10-10T11:47:35.421Z,1014.25
2023-10-10T11:48:35.327Z,1014.22
2023-10-10T11:49:35.303Z,1014.24
2023-10-10T11:50:35.279Z,1014.19
2023-10-10T11:51:35.253Z,1014.14
2023-10-10T11:52:35.290Z,1014.13
2023-10-10T11:53:35.240Z,1014.14
2023-10-10T11:54:35.219Z,1014.06
2023-10-10T11:55:35.205Z,1014.04
2023-10-10T11:56:35.238Z,1014.05
2023-10-10T11:57:35.192Z,1014.06
2023-10-10T11:58:35.194Z,1014.05
2023-10-10T11:59:35.180Z,1014.07
2023-10-10T12:00:35.153Z,1014.11
2023-10-10T12:01:35.209Z,1014.09
2023-10-10T12:02:35.170Z,1014.08
2023-10-10T12:03:35.230Z,1014.06
2023-10-10T12:04:35.133Z,1014.05
2023-10-10T12:05:35.123Z,1014.08